Time;durP1;ratioP1;P1;durP2;ratioP2;P2;SDS_P1;SDS_P2;PMS_P1;PMS_P2;Temp;Humidity;BMP_temperature;BMP_pressure;BME280_temperature;BME280_humidity;BME280_pressure;Samples;Min_cycle;Max_cycle;Signal;HPM_P1;HPM_P2
2023/10/08 00:00:53;;;;;;;13.48;3.70;;;;;;;;;;4941210;28;102179;-85
2023/10/08 00:03:20;;;;;;;9.43;2.97;;;;;;;;;;4946853;28;99068;-85
2023/10/08 00:05:49;;;;;;;10.45;3.35;;;;;;;;;;4943144;28;99765;-85
2023/10/08 00:08:16;;;;;;;11.48;3.40;;;;;;;;;;4963652;28;99261;-86
2023/10/08 00:10:44;;;;;;;11.68;3.47;;;;;;;;;;4966471;28;99351;-85
2023/10/08 00:13:12;;;;;;;11.38;3.50;;;;;;;;;;4947433;28;101397;-85
2023/10/08 00:15:52;;;;;;;11.63;3.47;;;;;;;;;;4948777;28;98537;-85
2023/10/08 00:18:20;;;;;;;11.52;3.20;;;;;;;;;;4970897;28;105399;-85
2023/10/08 00:20:54;;;;;;;10.88;3.50;;;;;;;;;;4944920;28;99486;-84
2023/10/08 00:23:22;;;;;;;10.68;3.20;;;;;;;;;;4951092;28;98892;-84
2023/10/08 00:25:50;;;;;;;9.48;3.05;;;;;;;;;;4928317;28;98561;-85
2023/10/08 00:28:17;;;;;;;10.90;3.22;;;;;;;;;;4924310;28;98555;-85
2023/10/08 00:30:44;;;;;;;12.55;3.60;;;;;;;;;;4924967;28;99146;-85
2023/10/08 00:33:11;;;;;;;12.05;3.45;;;;;;;;;;4928605;28;99002;-85
2023/10/08 00:35:39;;;;;;;12.02;3.90;;;;;;;;;;4927855;28;99379;-84
2023/10/08 00:38:14;;;;;;;;;;;;;;;;;;4925928;28;101819;-84
2023/10/08 00:40:45;;;;;;;13.20;3.92;;;;;;;;;;4929211;28;100365;-84
2023/10/08 00:43:35;;;;;;;11.95;3.75;;;;;;;;;;4943092;28;98874;-84
2023/10/08 00:46:02;;;;;;;11.88;3.50;;;;;;;;;;4930296;28;99462;-84
2023/10/08 00:48:35;;;;;;;15.88;4.30;;;;;;;;;;4942458;28;99146;-85
2023/10/08 00:51:59;;;;;;;13.60;4.05;;;;;;;;;;4928393;28;99890;-84
2023/10/08 00:53:51;;;;;;;11.82;3.63;;;;;;;;;;4923073;28;99151;-85
2023/10/08 00:56:19;;;;;;;13.80;3.90;;;;;;;;;;4928040;28;99083;-85
2023/10/08 00:58:48;;;;;;;13.88;4.10;;;;;;;;;;4921130;28;99409;-84
2023/10/08 01:01:16;;;;;;;12.50;3.90;;;;;;;;;;4940981;28;100446;-85
2023/10/08 01:03:44;;;;;;;12.20;4.00;;;;;;;;;;4947961;28;97926;-86
2023/10/08 01:06:12;;;;;;;14.45;3.80;;;;;;;;;;4946879;28;98660;-84
2023/10/08 01:08:47;;;;;;;12.90;3.70;;;;;;;;;;4932469;28;101785;-84
2023/10/08 01:12:06;;;;;;;13.90;4.20;;;;;;;;;;4946981;28;99315;-84
2023/10/08 01:14:15;;;;;;;12.07;3.50;;;;;;;;;;4949818;28;101520;-83
2023/10/08 01:16:46;;;;;;;12.05;3.97;;;;;;;;;;4936872;28;99045;-84
2023/10/08 01:19:19;;;;;;;11.15;3.95;;;;;;;;;;4947328;28;99033;-84
2023/10/08 01:21:46;;;;;;;12.05;3.33;;;;;;;;;;4946563;28;100105;-85
2023/10/08 01:24:17;;;;;;;11.93;4.25;;;;;;;;;;4946457;28;99298;-84
2023/10/08 01:26:45;;;;;;;15.95;4.20;;;;;;;;;;4947224;28;99494;-85
2023/10/08 01:29:21;;;;;;;16.20;3.78;;;;;;;;;;4936759;28;101302;-84
2023/10/08 01:31:57;;;;;;;14.00;4.00;;;;;;;;;;4949309;28;98549;-84
2023/10/08 01:34:30;;;;;;;14.30;3.65;;;;;;;;;;4960805;28;104846;-85
2023/10/08 01:37:01;;;;;;;10.35;3.45;;;;;;;;;;4943621;28;99360;-85
2023/10/08 01:39:32;;;;;;;13.77;3.80;;;;;;;;;;4949165;28;103087;-85
2023/10/08 01:41:58;;;;;;;13.00;3.75;;;;;;;;;;4946838;28;100519;-85
2023/10/08 01:44:25;;;;;;;11.52;3.55;;;;;;;;;;4946035;28;98903;-84
2023/10/08 01:46:52;;;;;;;12.00;3.58;;;;;;;;;;4954365;28;99287;-84
2023/10/08 01:49:22;;;;;;;;;;;;;;;;;;4934410;28;99219;-84
2023/10/08 01:51:49;;;;;;;13.50;4.05;;;;;;;;;;4928556;28;99040;-84
2023/10/08 01:54:21;;;;;;;10.23;3.67;;;;;;;;;;4928429;28;104755;-84
2023/10/08 01:56:50;;;;;;;13.20;3.92;;;;;;;;;;4926318;28;99145;-84
2023/10/08 01:59:17;;;;;;;11.38;3.47;;;;;;;;;;4927254;28;99011;-84
2023/10/08 02:01:45;;;;;;;10.52;3.42;;;;;;;;;;4924025;28;103958;-84
2023/10/08 02:04:12;;;;;;;11.23;3.65;;;;;;;;;;4935269;28;98449;-82
2023/10/08 02:06:39;;;;;;;12.77;3.65;;;;;;;;;;4939792;28;100397;-83
2023/10/08 02:09:07;;;;;;;11.68;3.67;;;;;;;;;;4941445;28;99143;-84
2023/10/08 02:11:44;;;;;;;13.70;3.85;;;;;;;;;;4930931;28;98760;-83
2023/10/08 02:14:12;;;;;;;12.63;3.60;;;;;;;;;;4912550;28;100061;-83
2023/10/08 02:16:39;;;;;;;12.43;3.60;;;;;;;;;;4937544;28;99321;-83
2023/10/08 02:19:06;;;;;;;10.73;3.78;;;;;;;;;;4937810;28;104069;-84
2023/10/08 02:21:33;;;;;;;11.82;4.00;;;;;;;;;;4948430;28;100518;-84
2023/10/08 02:23:59;;;;;;;13.05;3.92;;;;;;;;;;4944521;28;99041;-85
2023/10/08 02:26:26;;;;;;;13.95;3.80;;;;;;;;;;4953939;28;99991;-85
2023/10/08 02:28:53;;;;;;;11.70;3.15;;;;;;;;;;4949502;28;100654;-85
2023/10/08 02:31:20;;;;;;;13.63;3.88;;;;;;;;;;4962844;28;99051;-85
2023/10/08 02:33:47;;;;;;;14.07;3.92;;;;;;;;;;4960210;28;98908;-85
2023/10/08 02:36:13;;;;;;;12.93;3.53;;;;;;;;;;4954657;28;98956;-86
2023/10/08 02:38:40;;;;;;;10.85;3.80;;;;;;;;;;4948039;28;99297;-85
2023/10/08 02:41:07;;;;;;;18.85;4.10;;;;;;;;;;4948771;28;100021;-85
2023/10/08 02:43:36;;;;;;;;;;;;;;;;;;4969099;28;97948;-85
2023/10/08 02:46:06;;;;;;;12.05;3.67;;;;;;;;;;4954270;28;98521;-84
2023/10/08 02:48:34;;;;;;;11.93;3.70;;;;;;;;;;4954710;28;101028;-84
2023/10/08 02:51:07;;;;;;;12.50;3.95;;;;;;;;;;4950348;28;99344;-84
2023/10/08 02:53:34;;;;;;;16.25;4.55;;;;;;;;;;4945822;28;99885;-84
2023/10/08 02:56:00;;;;;;;11.48;3.60;;;;;;;;;;4950091;28;106276;-83
2023/10/08 02:58:27;;;;;;;11.57;3.83;;;;;;;;;;4945670;28;99500;-84
2023/10/08 03:00:54;;;;;;;12.90;3.70;;;;;;;;;;4927965;28;99471;-84
2023/10/08 03:03:24;;;;;;;11.45;4.15;;;;;;;;;;4920759;28;98558;-85
2023/10/08 03:05:52;;;;;;;11.75;3.83;;;;;;;;;;4945056;28;101370;-84
2023/10/08 03:08:20;;;;;;;12.85;4.03;;;;;;;;;;4930404;28;100285;-84
2023/10/08 03:11:03;;;;;;;11.82;3.55;;;;;;;;;;4930134;28;98517;-84
2023/10/08 03:13:30;;;;;;;11.77;3.80;;;;;;;;;;4928380;28;101656;-84
2023/10/08 03:16:08;;;;;;;10.90;3.60;;;;;;;;;;4942946;28;102558;-84
2023/10/08 03:18:35;;;;;;;10.80;3.65;;;;;;;;;;4936321;28;98491;-84
2023/10/08 03:21:04;;;;;;;15.55;4.20;;;;;;;;;;4950709;28;101516;-84
2023/10/08 03:23:35;;;;;;;10.27;3.60;;;;;;;;;;4949800;28;98626;-85
2023/10/08 03:26:10;;;;;;;10.80;4.18;;;;;;;;;;4948333;28;98942;-83
2023/10/08 03:28:41;;;;;;;11.10;3.70;;;;;;;;;;4933753;28;101754;-84
2023/10/08 03:31:17;;;;;;;11.70;3.70;;;;;;;;;;4961165;28;98964;-84
2023/10/08 03:33:51;;;;;;;15.23;4.07;;;;;;;;;;4932606;28;101849;-85
2023/10/08 03:36:21;;;;;;;14.57;3.80;;;;;;;;;;4958907;28;105145;-85
2023/10/08 03:38:51;;;;;;;14.85;3.83;;;;;;;;;;4948817;28;98483;-85
2023/10/08 03:41:27;;;;;;;14.05;4.05;;;;;;;;;;4953040;28;100166;-85
2023/10/08 03:44:06;;;;;;;11.77;3.63;;;;;;;;;;4953417;28;98593;-84
2023/10/08 03:46:39;;;;;;;10.20;4.00;;;;;;;;;;4947472;28;98739;-85
2023/10/08 03:49:24;;;;;;;;;;;;;;;;;;4963872;28;99683;-85
2023/10/08 03:51:52;;;;;;;10.82;3.85;;;;;;;;;;4981363;28;98977;-84
2023/10/08 03:54:20;;;;;;;8.90;3.45;;;;;;;;;;4947702;28;98932;-85
2023/10/08 03:56:48;;;;;;;12.63;3.72;;;;;;;;;;4948571;28;101565;-85
2023/10/08 03:59:31;;;;;;;12.73;4.07;;;;;;;;;;4963538;28;98532;-85
2023/10/08 04:04:51;;;;;;;11.52;3.88;;;;;;;;;;4927286;28;99270;-85
2023/10/08 04:12:50;;;;;;;10.55;3.58;;;;;;;;;;4937699;28;99337;-84
2023/10/08 04:15:18;;;;;;;13.65;3.60;;;;;;;;;;4962485;28;99086;-84
2023/10/08 04:17:44;;;;;;;12.18;3.83;;;;;;;;;;4947894;28;99421;-84
2023/10/08 04:20:32;;;;;;;10.30;3.65;;;;;;;;;;4955752;28;98985;-84
2023/10/08 04:23:00;;;;;;;13.32;3.55;;;;;;;;;;4934041;28;98929;-84
2023/10/08 04:25:27;;;;;;;11.25;3.85;;;;;;;;;;4948891;28;98497;-85
2023/10/08 04:27:58;;;;;;;12.00;4.18;;;;;;;;;;4942959;28;98655;-84
2023/10/08 04:30:32;;;;;;;10.02;3.53;;;;;;;;;;4936549;28;98502;-84
2023/10/08 04:33:06;;;;;;;11.55;3.80;;;;;;;;;;4952373;28;99161;-85
2023/10/08 04:35:36;;;;;;;12.38;3.88;;;;;;;;;;4941504;28;99473;-85
2023/10/08 04:38:08;;;;;;;12.55;3.92;;;;;;;;;;4945308;28;101617;-85
2023/10/08 04:40:47;;;;;;;11.27;3.67;;;;;;;;;;4948349;28;98845;-85
2023/10/08 04:46:21;;;;;;;9.43;3.67;;;;;;;;;;4950416;28;99385;-85
2023/10/08 04:48:55;;;;;;;9.35;3.60;;;;;;;;;;4949105;28;99262;-85
2023/10/08 04:51:22;;;;;;;13.43;3.85;;;;;;;;;;4943143;28;98978;-85
2023/10/08 04:53:49;;;;;;;10.95;3.53;;;;;;;;;;4945448;28;98520;-85
2023/10/08 04:56:19;;;;;;;10.75;3.50;;;;;;;;;;4948018;28;100951;-85
2023/10/08 04:58:46;;;;;;;9.88;3.33;;;;;;;;;;4947627;28;100249;-85
2023/10/08 05:01:20;;;;;;;10.40;3.30;;;;;;;;;;4949341;28;99026;-85
2023/10/08 05:14:34;;;;;;;10.95;3.25;;;;;;;;;;4950324;28;104109;-84
2023/10/08 05:20:17;;;;;;;;;;;;;;;;;;4953458;28;99564;-84
2023/10/08 05:22:55;;;;;;;8.15;2.90;;;;;;;;;;4936427;28;105166;-85
2023/10/08 05:25:35;;;;;;;9.48;3.00;;;;;;;;;;4945544;28;101654;-85
2023/10/08 05:28:09;;;;;;;11.60;3.25;;;;;;;;;;4931511;28;103502;-85
2023/10/08 05:30:53;;;;;;;10.27;3.05;;;;;;;;;;4948233;28;98483;-85
2023/10/08 05:33:28;;;;;;;9.95;3.00;;;;;;;;;;4948339;28;99165;-84
2023/10/08 05:36:02;;;;;;;11.50;2.97;;;;;;;;;;4947904;28;100827;-84
2023/10/08 05:38:38;;;;;;;14.40;3.17;;;;;;;;;;4951311;28;98555;-85
2023/10/08 05:41:12;;;;;;;9.93;3.00;;;;;;;;;;4961034;28;100656;-84
2023/10/08 05:49:02;;;;;;;11.18;2.97;;;;;;;;;;4949546;28;99764;-86
2023/10/08 05:54:36;;;;;;;10.10;2.65;;;;;;;;;;4944013;28;99630;-86
2023/10/08 05:57:14;;;;;;;10.07;2.55;;;;;;;;;;4938854;28;99211;-88
2023/10/08 06:05:23;;;;;;;9.95;2.25;;;;;;;;;;4939992;28;98783;-84
2023/10/08 06:18:26;;;;;;;12.60;2.35;;;;;;;;;;4943018;28;104710;-84
2023/10/08 06:20:58;;;;;;;6.82;2.10;;;;;;;;;;4943105;28;98476;-84
2023/10/08 06:23:28;;;;;;;6.90;1.83;;;;;;;;;;4941680;28;98574;-85
2023/10/08 06:28:41;;;;;;;6.68;2.00;;;;;;;;;;4936321;28;98806;-84
2023/10/08 06:31:24;;;;;;;9.02;2.00;;;;;;;;;;4936926;28;99799;-84
2023/10/08 06:33:52;;;;;;;8.52;1.83;;;;;;;;;;4934217;28;98486;-82
2023/10/08 06:36:23;;;;;;;;;;;;;;;;;;4941318;28;98996;-83
2023/10/08 06:38:51;;;;;;;;;;;;;;;;;;4950131;28;108800;-83
2023/10/08 06:41:17;;;;;;;6.75;1.65;;;;;;;;;;4941213;28;109772;-84
2023/10/08 06:44:13;;;;;;;6.30;1.65;;;;;;;;;;4938743;28;99134;-85
2023/10/08 06:46:41;;;;;;;6.47;1.55;;;;;;;;;;4940272;28;98553;-85
2023/10/08 06:49:11;;;;;;;5.40;1.48;;;;;;;;;;4934055;28;98694;-84
2023/10/08 06:51:41;;;;;;;5.85;1.65;;;;;;;;;;4928476;28;99055;-83
2023/10/08 06:54:17;;;;;;;5.50;1.63;;;;;;;;;;4921868;28;100244;-84
2023/10/08 06:56:51;;;;;;;6.32;1.48;;;;;;;;;;4929427;28;100009;-84
2023/10/08 06:59:22;;;;;;;7.00;1.60;;;;;;;;;;4928011;28;99258;-84
2023/10/08 07:01:51;;;;;;;6.63;1.50;;;;;;;;;;4909590;28;98350;-82
2023/10/08 07:04:18;;;;;;;7.20;1.70;;;;;;;;;;4926255;28;102771;-81
2023/10/08 07:06:46;;;;;;;9.05;1.60;;;;;;;;;;4925951;28;99299;-83
2023/10/08 07:09:23;;;;;;;9.45;1.80;;;;;;;;;;4928639;28;99326;-84
2023/10/08 07:11:54;;;;;;;6.00;1.48;;;;;;;;;;4925847;28;99271;-85
2023/10/08 07:14:26;;;;;;;9.00;1.60;;;;;;;;;;4930575;28;98547;-84
2023/10/08 07:17:00;;;;;;;6.05;1.30;;;;;;;;;;4945619;28;98592;-86
2023/10/08 07:19:37;;;;;;;5.88;1.60;;;;;;;;;;4954210;28;100098;-85
2023/10/08 07:22:28;;;;;;;7.35;1.50;;;;;;;;;;4944737;28;98915;-86
2023/10/08 07:24:54;;;;;;;6.28;1.60;;;;;;;;;;4942243;28;98457;-85
2023/10/08 07:27:31;;;;;;;7.13;1.50;;;;;;;;;;4942034;28;99490;-86
2023/10/08 07:30:01;;;;;;;4.60;1.20;;;;;;;;;;4938412;28;98614;-85
2023/10/08 07:32:30;;;;;;;7.47;1.50;;;;;;;;;;4945002;28;100214;-86
2023/10/08 07:35:14;;;;;;;6.28;1.48;;;;;;;;;;4926818;28;99315;-86
2023/10/08 07:37:41;;;;;;;4.95;1.33;;;;;;;;;;4926676;28;99500;-86
2023/10/08 07:40:10;;;;;;;4.53;1.13;;;;;;;;;;4924724;28;99005;-86
2023/10/08 07:42:36;;;;;;;5.72;1.20;;;;;;;;;;4926180;28;98613;-86
2023/10/08 07:45:04;;;;;;;4.93;1.30;;;;;;;;;;4925252;28;98574;-86
2023/10/08 07:47:31;;;;;;;4.13;1.15;;;;;;;;;;4925678;28;99643;-85
2023/10/08 07:49:58;;;;;;;4.30;1.20;;;;;;;;;;4927759;28;99006;-83
2023/10/08 07:52:25;;;;;;;4.97;1.30;;;;;;;;;;4928618;28;99210;-85
2023/10/08 07:54:53;;;;;;;3.95;1.20;;;;;;;;;;4930819;28;99928;-84
2023/10/08 07:57:25;;;;;;;2.55;1.00;;;;;;;;;;4928370;28;98726;-85
2023/10/08 07:59:54;;;;;;;4.30;1.20;;;;;;;;;;4927600;28;100519;-85
2023/10/08 08:02:26;;;;;;;2.53;1.15;;;;;;;;;;4928336;28;98673;-86
2023/10/08 08:04:53;;;;;;;3.35;1.10;;;;;;;;;;4928766;28;99978;-85
2023/10/08 08:07:21;;;;;;;3.03;1.10;;;;;;;;;;4927910;28;99145;-85
2023/10/08 08:09:52;;;;;;;3.85;1.27;;;;;;;;;;4909468;28;98563;-84
2023/10/08 08:12:21;;;;;;;2.50;1.00;;;;;;;;;;4926249;28;102366;-84
2023/10/08 08:14:48;;;;;;;4.43;1.17;;;;;;;;;;4928974;28;98562;-84
2023/10/08 08:17:15;;;;;;;3.55;1.33;;;;;;;;;;4943850;28;97892;-84
2023/10/08 08:19:47;;;;;;;3.00;1.10;;;;;;;;;;4945302;28;100877;-86
2023/10/08 08:22:21;;;;;;;3.67;1.20;;;;;;;;;;4943121;28;99042;-83
2023/10/08 08:24:52;;;;;;;3.08;1.05;;;;;;;;;;4947650;28;99905;-84
2023/10/08 08:27:23;;;;;;;3.28;1.20;;;;;;;;;;4946655;28;99053;-82
2023/10/08 08:29:55;;;;;;;2.25;1.00;;;;;;;;;;4947288;28;98600;-83
2023/10/08 08:32:23;;;;;;;3.25;1.17;;;;;;;;;;4946989;28;103677;-85
2023/10/08 08:34:53;;;;;;;2.78;0.98;;;;;;;;;;4947728;28;100057;-85
2023/10/08 08:37:22;;;;;;;3.00;1.10;;;;;;;;;;4946339;28;98597;-81
2023/10/08 08:39:49;;;;;;;4.40;1.20;;;;;;;;;;4960765;28;98684;-80
2023/10/08 08:42:18;;;;;;;4.28;1.05;;;;;;;;;;4944504;28;99628;-81
2023/10/08 08:44:48;;;;;;;2.03;1.10;;;;;;;;;;4946161;28;98627;-82
2023/10/08 08:47:18;;;;;;;2.63;0.85;;;;;;;;;;4946027;28;99146;-81
2023/10/08 08:49:46;;;;;;;2.58;0.90;;;;;;;;;;4945267;28;100276;-81
2023/10/08 08:52:13;;;;;;;3.20;0.90;;;;;;;;;;4944264;28;99506;-81
2023/10/08 08:54:39;;;;;;;;;;;;;;;;;;4946127;28;99414;-82
2023/10/08 08:57:13;;;;;;;3.75;1.02;;;;;;;;;;4947594;28;99211;-82
2023/10/08 08:59:44;;;;;;;1.92;0.85;;;;;;;;;;4948138;28;100005;-82
2023/10/08 09:02:14;;;;;;;2.90;1.00;;;;;;;;;;4940340;28;99071;-80
2023/10/08 09:04:41;;;;;;;2.80;1.00;;;;;;;;;;4946466;28;100086;-80
2023/10/08 09:07:08;;;;;;;;;;;;;;;;;;4946778;28;99366;-82
2023/10/08 09:09:39;;;;;;;5.60;1.00;;;;;;;;;;4947424;28;98945;-81
2023/10/08 09:12:08;;;;;;;1.50;0.80;;;;;;;;;;4945482;28;106090;-81
2023/10/08 09:14:36;;;;;;;1.95;0.80;;;;;;;;;;4944718;28;99852;-81
2023/10/08 09:17:05;;;;;;;;;;;;;;;;;;4961608;28;98867;-82
2023/10/08 09:19:36;;;;;;;1.58;0.90;;;;;;;;;;4947754;28;98521;-81
2023/10/08 09:22:07;;;;;;;2.35;0.90;;;;;;;;;;4948477;28;99097;-81
2023/10/08 09:24:36;;;;;;;3.60;1.20;;;;;;;;;;4938608;28;99009;-80
2023/10/08 09:27:04;;;;;;;1.45;0.98;;;;;;;;;;4945079;28;99210;-79
2023/10/08 09:29:31;;;;;;;2.95;1.02;;;;;;;;;;4944132;28;100145;-81
2023/10/08 09:31:58;;;;;;;2.30;0.98;;;;;;;;;;4943388;28;99028;-80
2023/10/08 09:34:30;;;;;;;2.40;0.93;;;;;;;;;;4942979;28;99539;-80
2023/10/08 09:36:59;;;;;;;1.15;0.85;;;;;;;;;;4945440;28;99178;-80
2023/10/08 09:39:28;;;;;;;2.33;0.80;;;;;;;;;;4944638;28;99420;-80
2023/10/08 09:41:55;;;;;;;2.38;0.90;;;;;;;;;;4943704;28;99078;-80
2023/10/08 09:44:25;;;;;;;2.78;1.08;;;;;;;;;;4936876;28;98821;-81
2023/10/08 09:46:53;;;;;;;2.78;0.90;;;;;;;;;;4945514;28;100278;-81
2023/10/08 09:49:24;;;;;;;2.42;0.90;;;;;;;;;;4944872;28;98788;-81
2023/10/08 09:51:50;;;;;;;1.33;0.90;;;;;;;;;;4943828;28;100446;-80
2023/10/08 09:54:26;;;;;;;2.60;1.10;;;;;;;;;;4936156;28;103654;-81
2023/10/08 09:56:54;;;;;;;2.08;1.02;;;;;;;;;;4939756;28;97902;-81
2023/10/08 09:59:21;;;;;;;3.17;0.93;;;;;;;;;;4945541;28;99930;-80
2023/10/08 10:01:48;;;;;;;2.50;1.00;;;;;;;;;;4943883;28;99986;-81
2023/10/08 10:04:24;;;;;;;2.35;0.90;;;;;;;;;;4929835;28;99892;-81
2023/10/08 10:06:52;;;;;;;3.28;1.10;;;;;;;;;;4948303;28;99980;-81
2023/10/08 10:09:22;;;;;;;1.30;0.90;;;;;;;;;;4944011;28;98663;-82
2023/10/08 10:11:50;;;;;;;1.30;0.98;;;;;;;;;;4944176;28;98982;-81
2023/10/08 10:14:19;;;;;;;2.88;1.05;;;;;;;;;;4943377;28;104973;-81
2023/10/08 10:17:09;;;;;;;2.45;1.10;;;;;;;;;;4945602;28;98562;-82
2023/10/08 10:19:36;;;;;;;4.57;1.20;;;;;;;;;;4943654;28;99622;-81
2023/10/08 10:22:03;;;;;;;2.22;1.05;;;;;;;;;;4917027;28;102022;-81
2023/10/08 10:24:33;;;;;;;;;;;;;;;;;;4932917;28;98939;-81
2023/10/08 10:27:10;;;;;;;2.78;1.20;;;;;;;;;;4942757;28;98544;-83
2023/10/08 10:29:37;;;;;;;3.22;1.30;;;;;;;;;;4929204;28;100239;-83
2023/10/08 10:32:05;;;;;;;2.38;1.10;;;;;;;;;;4940415;28;99395;-83
2023/10/08 10:34:34;;;;;;;2.58;1.10;;;;;;;;;;4946282;28;99607;-83
2023/10/08 10:37:20;;;;;;;2.42;1.30;;;;;;;;;;4952861;28;98822;-83
2023/10/08 10:39:56;;;;;;;4.00;1.50;;;;;;;;;;4945153;28;98555;-84
2023/10/08 10:42:23;;;;;;;4.20;1.30;;;;;;;;;;4933022;28;103704;-83
2023/10/08 10:44:50;;;;;;;4.70;1.10;;;;;;;;;;4945146;28;98504;-83
2023/10/08 10:57:44;;;;;;;4.18;1.30;;;;;;;;;;4924452;28;98837;-83
2023/10/08 11:02:59;;;;;;;;;;;;;;;;;;4945480;28;99282;-83
2023/10/08 11:05:29;;;;;;;3.15;1.20;;;;;;;;;;4946367;28;99142;-83
2023/10/08 11:08:04;;;;;;;1.95;1.08;;;;;;;;;;4942766;28;99030;-82
2023/10/08 11:10:31;;;;;;;4.00;1.50;;;;;;;;;;4959358;28;100697;-82
2023/10/08 11:13:00;;;;;;;2.30;1.20;;;;;;;;;;4938159;28;98448;-82
2023/10/08 11:15:37;;;;;;;1.73;1.08;;;;;;;;;;4923247;28;99626;-82
2023/10/08 11:18:08;;;;;;;1.45;1.00;;;;;;;;;;4923548;28;99223;-82
2023/10/08 11:20:44;;;;;;;2.15;1.10;;;;;;;;;;4923338;28;99426;-82
2023/10/08 11:23:29;;;;;;;2.55;1.33;;;;;;;;;;4924914;28;99713;-83
2023/10/08 11:26:03;;;;;;;2.35;1.27;;;;;;;;;;4921571;28;103301;-83
2023/10/08 11:28:34;;;;;;;2.60;1.25;;;;;;;;;;4912356;28;99832;-82
2023/10/08 11:31:08;;;;;;;1.88;1.20;;;;;;;;;;4927030;28;100475;-82
2023/10/08 11:33:36;;;;;;;2.63;1.40;;;;;;;;;;4913098;28;99285;-81
2023/10/08 11:36:06;;;;;;;2.10;1.10;;;;;;;;;;4923746;28;98840;-81
2023/10/08 11:38:41;;;;;;;4.32;1.38;;;;;;;;;;4929012;28;98261;-82
2023/10/08 11:41:20;;;;;;;2.58;1.20;;;;;;;;;;4928648;28;98560;-82
2023/10/08 11:43:53;;;;;;;2.90;1.40;;;;;;;;;;4927862;28;99279;-82
2023/10/08 11:46:20;;;;;;;;;;;;;;;;;;4927077;28;99391;-82
2023/10/08 11:48:47;;;;;;;3.40;1.17;;;;;;;;;;4930456;28;104638;-82
2023/10/08 11:51:17;;;;;;;;;;;;;;;;;;4935303;28;99227;-82
2023/10/08 11:53:44;;;;;;;1.92;1.10;;;;;;;;;;4941360;28;106007;-83
2023/10/08 11:56:14;;;;;;;1.83;1.08;;;;;;;;;;4918680;28;98872;-83
2023/10/08 11:58:44;;;;;;;3.75;1.30;;;;;;;;;;4934591;28;100331;-82
2023/10/08 12:01:15;;;;;;;2.35;1.13;;;;;;;;;;4929547;28;99336;-82
2023/10/08 12:03:43;;;;;;;2.85;1.13;;;;;;;;;;4930095;28;98880;-82
2023/10/08 12:06:18;;;;;;;2.28;1.13;;;;;;;;;;4933395;28;99123;-83
2023/10/08 12:08:46;;;;;;;2.20;1.20;;;;;;;;;;4928121;28;99898;-82
2023/10/08 12:11:14;;;;;;;2.88;1.10;;;;;;;;;;4927856;28;99964;-82
2023/10/08 12:13:47;;;;;;;;;;;;;;;;;;4924015;28;98623;-82
2023/10/08 12:16:22;;;;;;;2.72;1.10;;;;;;;;;;4913173;28;98868;-81
2023/10/08 12:18:53;;;;;;;2.03;1.10;;;;;;;;;;4927602;28;99664;-80
2023/10/08 12:21:21;;;;;;;3.58;1.23;;;;;;;;;;4926406;28;98919;-81
2023/10/08 12:23:49;;;;;;;2.95;1.08;;;;;;;;;;4916742;28;101793;-82
2023/10/08 12:26:18;;;;;;;2.83;1.10;;;;;;;;;;4926776;28;98751;-81
2023/10/08 12:28:45;;;;;;;1.55;1.10;;;;;;;;;;4928184;28;98993;-81
2023/10/08 12:31:12;;;;;;;1.73;1.20;;;;;;;;;;4953315;28;102048;-82
2023/10/08 12:33:40;;;;;;;;;;;;;;;;;;4946966;28;99153;-82
2023/10/08 12:36:12;;;;;;;2.90;1.10;;;;;;;;;;4946614;28;115782;-81
2023/10/08 12:38:41;;;;;;;2.45;1.20;;;;;;;;;;4946304;28;99276;-81
2023/10/08 12:41:11;;;;;;;1.88;1.10;;;;;;;;;;4944479;28;98478;-81
2023/10/08 12:43:44;;;;;;;2.53;1.15;;;;;;;;;;4950352;28;98842;-82
2023/10/08 12:46:18;;;;;;;1.58;1.02;;;;;;;;;;4947232;28;98558;-82
2023/10/08 12:48:48;;;;;;;3.92;1.33;;;;;;;;;;4947231;28;98632;-81
2023/10/08 12:51:15;;;;;;;1.75;1.20;;;;;;;;;;4954059;28;98532;-82
2023/10/08 12:53:50;;;;;;;1.67;0.90;;;;;;;;;;4951968;28;98222;-82
2023/10/08 12:56:21;;;;;;;2.78;1.10;;;;;;;;;;4946562;28;98755;-81
2023/10/08 12:58:53;;;;;;;1.17;1.00;;;;;;;;;;4947282;28;99096;-81
2023/10/08 13:01:20;;;;;;;1.42;1.08;;;;;;;;;;4945565;28;99805;-80
2023/10/08 13:03:48;;;;;;;3.28;1.15;;;;;;;;;;4947428;28;100055;-82
2023/10/08 13:06:22;;;;;;;1.88;0.98;;;;;;;;;;4964062;28;100478;-81
2023/10/08 13:08:51;;;;;;;2.38;1.10;;;;;;;;;;4945351;28;100068;-82
2023/10/08 13:11:22;;;;;;;2.55;1.10;;;;;;;;;;4946767;28;99214;-81
2023/10/08 13:13:52;;;;;;;1.52;1.00;;;;;;;;;;4946633;28;98589;-82
2023/10/08 13:16:21;;;;;;;2.85;1.00;;;;;;;;;;4961661;28;106439;-81
2023/10/08 13:18:48;;;;;;;2.13;1.00;;;;;;;;;;4946527;28;98363;-82
2023/10/08 13:21:15;;;;;;;2.70;1.10;;;;;;;;;;4946603;28;98582;-81
2023/10/08 13:23:42;;;;;;;3.47;1.27;;;;;;;;;;4945056;28;99302;-81
2023/10/08 13:26:08;;;;;;;1.55;1.00;;;;;;;;;;4946700;28;100369;-81
2023/10/08 13:28:35;;;;;;;2.47;1.10;;;;;;;;;;4942835;28;100633;-82
2023/10/08 13:31:12;;;;;;;2.03;1.10;;;;;;;;;;4943722;28;100678;-82
2023/10/08 13:33:39;;;;;;;1.52;1.00;;;;;;;;;;4942250;28;98655;-82
2023/10/08 13:36:09;;;;;;;3.35;0.98;;;;;;;;;;4946744;28;98544;-82
2023/10/08 13:38:48;;;;;;;3.15;1.30;;;;;;;;;;4955139;28;99181;-81
2023/10/08 13:41:15;;;;;;;2.00;1.10;;;;;;;;;;4951077;28;98617;-82
2023/10/08 13:43:45;;;;;;;1.55;1.00;;;;;;;;;;4956070;28;99308;-82
2023/10/08 13:46:13;;;;;;;2.42;0.95;;;;;;;;;;4955451;28;100103;-81
2023/10/08 13:48:40;;;;;;;2.40;1.00;;;;;;;;;;4961158;28;99307;-80
2023/10/08 13:51:20;;;;;;;2.15;0.80;;;;;;;;;;4970986;28;100186;-81
2023/10/08 13:53:52;;;;;;;2.05;1.10;;;;;;;;;;4955417;28;98999;-81
2023/10/08 13:56:24;;;;;;;4.25;1.08;;;;;;;;;;4954318;28;101788;-81
2023/10/08 13:58:55;;;;;;;3.95;0.90;;;;;;;;;;4962210;28;98583;-80
2023/10/08 14:01:22;;;;;;;1.33;0.90;;;;;;;;;;4956985;28;98531;-81
2023/10/08 14:03:49;;;;;;;0.88;0.82;;;;;;;;;;4960489;28;98339;-81
2023/10/08 14:06:19;;;;;;;2.00;0.85;;;;;;;;;;4958591;28;99711;-82
2023/10/08 14:08:54;;;;;;;2.80;1.10;;;;;;;;;;4948940;28;98446;-82
2023/10/08 14:11:29;;;;;;;2.65;1.00;;;;;;;;;;4951860;28;101770;-81
2023/10/08 14:13:58;;;;;;;2.15;1.05;;;;;;;;;;4947355;28;98515;-80
2023/10/08 14:16:28;;;;;;;1.58;0.95;;;;;;;;;;4947459;28;100002;-80
2023/10/08 14:18:59;;;;;;;3.17;1.15;;;;;;;;;;4947650;28;99271;-82
2023/10/08 14:21:30;;;;;;;1.58;1.10;;;;;;;;;;4945341;28;106231;-82
2023/10/08 14:24:03;;;;;;;1.50;0.90;;;;;;;;;;4957176;28;99470;-82
2023/10/08 14:26:36;;;;;;;1.92;1.10;;;;;;;;;;4967129;28;99749;-81
2023/10/08 14:29:14;;;;;;;1.50;0.90;;;;;;;;;;4938765;28;98568;-82
2023/10/08 14:31:44;;;;;;;2.25;1.10;;;;;;;;;;4934936;28;99169;-82
2023/10/08 14:45:03;;;;;;;34.22;3.80;;;;;;;;;;4922982;28;99814;-83
2023/10/08 14:47:29;;;;;;;18.83;2.38;;;;;;;;;;4926177;28;99537;-80
2023/10/08 14:49:56;;;;;;;6.13;1.20;;;;;;;;;;4925958;28;98848;-81
2023/10/08 14:52:26;;;;;;;5.47;1.33;;;;;;;;;;4926444;28;100636;-84
2023/10/08 14:54:52;;;;;;;5.63;1.25;;;;;;;;;;4920160;28;99423;-85
2023/10/08 14:57:19;;;;;;;5.57;1.00;;;;;;;;;;4936038;28;98670;-86
2023/10/08 14:59:46;;;;;;;4.53;1.95;;;;;;;;;;4931217;28;98442;-88
2023/10/08 15:02:12;;;;;;;6.28;1.75;;;;;;;;;;4930561;28;99684;-89
2023/10/08 15:04:42;;;;;;;4.10;1.40;;;;;;;;;;4921306;28;101533;-88
2023/10/08 15:07:10;;;;;;;6.60;2.22;;;;;;;;;;4924783;28;99949;-88
2023/10/08 15:09:38;;;;;;;7.05;3.00;;;;;;;;;;4938848;28;99092;-89
2023/10/08 15:12:08;;;;;;;5.10;2.00;;;;;;;;;;4929931;28;98708;-88
2023/10/08 15:14:35;;;;;;;6.03;1.48;;;;;;;;;;4933226;28;99474;-86
2023/10/08 15:17:02;;;;;;;5.13;1.83;;;;;;;;;;4930743;28;99295;-87
2023/10/08 15:19:29;;;;;;;8.85;3.50;;;;;;;;;;4950298;28;98797;-87
2023/10/08 15:21:55;;;;;;;8.35;3.40;;;;;;;;;;4932572;28;98547;-87
2023/10/08 15:24:24;;;;;;;5.28;1.92;;;;;;;;;;4934055;28;98948;-87
2023/10/08 15:26:52;;;;;;;7.47;2.40;;;;;;;;;;4933952;28;99296;-86
2023/10/08 15:29:25;;;;;;;6.68;2.40;;;;;;;;;;4928801;28;98476;-87
2023/10/08 15:31:52;;;;;;;7.60;2.90;;;;;;;;;;4929294;28;99396;-86
2023/10/08 15:34:19;;;;;;;8.23;2.42;;;;;;;;;;4929959;28;99264;-86
2023/10/08 15:37:01;;;;;;;6.93;2.30;;;;;;;;;;4944450;28;99757;-85
2023/10/08 15:39:29;;;;;;;5.50;2.50;;;;;;;;;;4951122;28;98973;-85
2023/10/08 15:41:55;;;;;;;;;;;;;;;;;;4948337;28;98506;-85
2023/10/08 15:44:22;;;;;;;6.72;2.35;;;;;;;;;;4950292;28;112780;-85
2023/10/08 15:46:50;;;;;;;6.63;2.00;;;;;;;;;;4959723;28;99244;-86
2023/10/08 15:49:20;;;;;;;5.32;2.30;;;;;;;;;;4929659;28;98116;-86
2023/10/08 15:51:47;;;;;;;5.60;2.20;;;;;;;;;;4927766;28;100143;-84
2023/10/08 15:54:13;;;;;;;7.22;3.20;;;;;;;;;;4930276;28;99357;-85
2023/10/08 15:56:40;;;;;;;7.28;2.35;;;;;;;;;;4928931;28;99488;-86
2023/10/08 15:59:07;;;;;;;7.00;3.00;;;;;;;;;;4935139;28;99724;-86
2023/10/08 16:01:33;;;;;;;6.53;2.78;;;;;;;;;;4951278;28;100251;-86
2023/10/08 16:04:00;;;;;;;7.03;2.60;;;;;;;;;;4946755;28;99168;-86
2023/10/08 16:06:27;;;;;;;6.35;2.70;;;;;;;;;;4946931;28;99555;-85
2023/10/08 16:08:53;;;;;;;7.07;2.88;;;;;;;;;;4948658;28;98525;-85
2023/10/08 16:11:20;;;;;;;7.63;3.28;;;;;;;;;;4951278;28;98640;-86
2023/10/08 16:13:46;;;;;;;7.28;3.25;;;;;;;;;;4949291;28;98786;-87
2023/10/08 16:16:14;;;;;;;6.35;2.78;;;;;;;;;;4949547;28;99065;-86